createdAt,value
2023-01-07T00:00:33.953Z,89.25
2023-01-07T00:01:34.015Z,89.25
2023-01-07T00:02:33.903Z,89.25
2023-01-07T00:03:33.912Z,89.25
2023-01-07T00:04:33.851Z,89.25
2023-01-07T00:05:33.847Z,89.35
2023-01-07T00:06:33.848Z,89.35
2023-01-07T00:07:33.828Z,89.25
2023-01-07T00:08:33.813Z,89.25
2023-01-07T00:09:33.794Z,89.25
2023-01-07T00:10:33.790Z,89.25
2023-01-07T00:11:33.780Z,89.25
2023-01-07T00:12:33.762Z,89.25
2023-01-07T00:13:33.754Z,89.25
2023-01-07T00:14:33.748Z,89.19
2023-01-07T00:15:33.733Z,89.29
2023-01-07T00:16:33.748Z,89.39
2023-01-07T00:17:33.830Z,89.39
2023-01-07T00:18:33.755Z,89.50
2023-01-07T00:19:33.694Z,89.50
2023-01-07T00:20:33.678Z,89.59
2023-01-07T00:21:33.677Z,89.59
2023-01-07T00:22:33.661Z,89.59
2023-01-07T00:23:33.643Z,89.59
2023-01-07T00:24:33.632Z,89.59
2023-01-07T00:25:33.635Z,89.59
2023-01-07T00:26:33.608Z,89.59
2023-01-07T00:27:33.606Z,89.59
2023-01-07T00:28:33.583Z,89.59
2023-01-07T00:29:33.582Z,89.59
2023-01-07T00:30:33.565Z,89.59
2023-01-07T00:31:33.662Z,89.59
2023-01-07T00:32:33.545Z,89.59
2023-01-07T00:33:33.672Z,89.50
2023-01-07T00:34:33.524Z,89.59
2023-01-07T00:35:33.503Z,89.59
2023-01-07T00:36:33.505Z,89.70
2023-01-07T00:37:33.482Z,89.70
2023-01-07T00:38:33.475Z,89.80
2023-01-07T00:39:33.461Z,89.80
2023-01-07T00:40:33.455Z,89.80
2023-01-07T00:41:33.443Z,89.80
2023-01-07T00:42:33.428Z,89.80
2023-01-07T00:43:33.413Z,90.01
2023-01-07T00:44:33.415Z,90.01
2023-01-07T00:45:33.393Z,90.01
2023-01-07T00:46:33.477Z,90.11
2023-01-07T00:47:33.376Z,90.11
2023-01-07T00:48:33.363Z,90.21
2023-01-07T00:49:33.471Z,90.21
2023-01-07T00:50:33.350Z,90.21
2023-01-07T00:51:33.339Z,90.21
2023-01-07T00:52:33.317Z,90.21
2023-01-07T00:53:33.301Z,90.31
2023-01-07T00:54:33.289Z,90.31
2023-01-07T00:55:33.279Z,90.31
2023-01-07T00:56:33.278Z,90.42
2023-01-07T00:57:33.257Z,90.42
2023-01-07T00:58:33.268Z,90.42
2023-01-07T00:59:33.232Z,90.42
2023-01-07T01:00:33.330Z,90.42
2023-01-07T01:01:33.367Z,90.42
2023-01-07T01:02:33.276Z,90.42
2023-01-07T01:03:33.225Z,90.52
2023-01-07T01:04:33.186Z,90.52
2023-01-07T01:05:33.300Z,90.52
2023-01-07T01:06:33.155Z,90.67
2023-01-07T01:07:33.160Z,90.67
2023-01-07T01:08:33.137Z,90.67
2023-01-07T01:09:33.121Z,90.77
2023-01-07T01:10:33.115Z,90.87
2023-01-07T01:11:33.118Z,90.87
2023-01-07T01:12:33.089Z,90.87
2023-01-07T01:13:33.082Z,90.87
2023-01-07T01:14:33.072Z,90.87
2023-01-07T01:15:33.064Z,90.87
2023-01-07T01:16:33.085Z,90.97
2023-01-07T01:17:33.044Z,90.97
2023-01-07T01:18:33.029Z,91.08
2023-01-07T01:19:33.018Z,91.08
2023-01-07T01:20:33.003Z,91.18
2023-01-07T01:21:33.119Z,91.18
2023-01-07T01:22:32.987Z,91.18
2023-01-07T01:23:32.978Z,91.18
2023-01-07T01:24:32.958Z,91.29
2023-01-07T01:25:32.939Z,91.29
2023-01-07T01:26:32.936Z,91.29
2023-01-07T01:27:32.923Z,91.39
2023-01-07T01:28:32.915Z,91.39
2023-01-07T01:29:32.909Z,91.39
2023-01-07T01:30:32.891Z,91.39
2023-01-07T01:31:32.916Z,91.29
2023-01-07T01:32:32.865Z,91.29
2023-01-07T01:33:32.869Z,91.39
2023-01-07T01:34:32.841Z,91.39
2023-01-07T01:35:32.833Z,91.49
2023-01-07T01:36:32.828Z,91.49
2023-01-07T01:37:32.922Z,91.59
2023-01-07T01:38:32.797Z,91.59
2023-01-07T01:39:32.785Z,91.59
2023-01-07T01:40:32.769Z,91.59
2023-01-07T01:41:32.758Z,91.59
2023-01-07T01:42:32.771Z,91.59
2023-01-07T01:43:32.745Z,91.69
2023-01-07T01:44:32.731Z,91.69
2023-01-07T01:45:32.720Z,91.80
2023-01-07T01:46:32.768Z,91.80
2023-01-07T01:47:32.707Z,91.80
2023-01-07T01:48:32.690Z,91.90
2023-01-07T01:49:32.681Z,91.90
2023-01-07T01:50:32.668Z,91.90
2023-01-07T01:51:32.645Z,91.90
2023-01-07T01:52:32.642Z,92.01
2023-01-07T01:53:32.752Z,92.01
2023-01-07T01:54:32.619Z,92.01
2023-01-07T01:55:32.613Z,92.01
2023-01-07T01:56:32.594Z,92.01
2023-01-07T01:57:32.586Z,92.11
2023-01-07T01:58:32.574Z,92.11
2023-01-07T01:59:32.562Z,92.21
2023-01-07T02:00:32.561Z,92.31
2023-01-07T02:01:32.728Z,92.31
2023-01-07T02:02:32.605Z,92.31
2023-01-07T02:03:32.526Z,92.31
2023-01-07T02:04:32.503Z,92.31
2023-01-07T02:05:32.488Z,92.31
2023-01-07T02:06:32.473Z,92.31
2023-01-07T02:07:32.462Z,92.41
2023-01-07T02:08:32.449Z,92.41
2023-01-07T02:09:32.475Z,92.41
2023-01-07T02:10:32.427Z,92.41
2023-01-07T02:11:32.434Z,92.52
2023-01-07T02:12:32.412Z,92.52
2023-01-07T02:13:32.392Z,92.62
2023-01-07T02:14:32.389Z,92.52
2023-01-07T02:15:32.389Z,92.52
2023-01-07T02:16:32.398Z,92.52
2023-01-07T02:17:32.355Z,92.62
2023-01-07T02:18:32.346Z,92.73
2023-01-07T02:19:32.332Z,92.73
2023-01-07T02:20:32.314Z,92.73
2023-01-07T02:21:32.315Z,92.73
2023-01-07T02:22:32.289Z,92.82
2023-01-07T02:23:32.276Z,92.82
2023-01-07T02:24:32.285Z,92.82
2023-01-07T02:25:32.400Z,92.82
2023-01-07T02:26:32.244Z,92.93
2023-01-07T02:27:32.253Z,92.93
2023-01-07T02:28:32.225Z,92.93
2023-01-07T02:29:32.209Z,92.93
2023-01-07T02:30:32.211Z,93.03
2023-01-07T02:31:32.225Z,93.03
2023-01-07T02:32:32.181Z,93.03
2023-01-07T02:33:32.172Z,93.03
2023-01-07T02:34:32.154Z,93.13
2023-01-07T02:35:32.146Z,93.13
2023-01-07T02:36:32.134Z,93.13
2023-01-07T02:37:32.125Z,93.13
2023-01-07T02:38:32.111Z,93.13
2023-01-07T02:39:32.104Z,93.13
2023-01-07T02:40:32.099Z,93.13
2023-01-07T02:41:32.213Z,93.13
2023-01-07T02:42:32.074Z,93.13
2023-01-07T02:43:32.050Z,93.24
2023-01-07T02:44:32.046Z,93.24
2023-01-07T02:45:32.086Z,93.24
2023-01-07T02:46:32.022Z,93.24
2023-01-07T02:47:32.004Z,93.24
2023-01-07T02:48:32.001Z,93.34
2023-01-07T02:49:31.982Z,93.38
2023-01-07T02:50:31.979Z,93.34
2023-01-07T02:51:31.981Z,93.49
2023-01-07T02:52:31.952Z,93.44
2023-01-07T02:53:31.941Z,93.54
2023-01-07T02:54:31.931Z,93.54
2023-01-07T02:55:31.914Z,93.59
2023-01-07T02:56:31.903Z,93.59
2023-01-07T02:57:32.010Z,93.79
2023-01-07T02:58:31.887Z,93.79
2023-01-07T02:59:31.882Z,93.90
2023-01-07T03:00:31.861Z,93.90
2023-01-07T03:01:31.999Z,94.00
2023-01-07T03:02:31.839Z,93.96
2023-01-07T03:03:31.831Z,93.96
2023-01-07T03:04:31.809Z,93.96
2023-01-07T03:05:31.796Z,93.96
2023-01-07T03:06:31.785Z,93.96
2023-01-07T03:07:31.785Z,94.06
2023-01-07T03:08:31.770Z,93.96
2023-01-07T03:09:31.758Z,93.96
2023-01-07T03:10:31.754Z,93.96
2023-01-07T03:11:31.738Z,93.96
2023-01-07T03:12:31.719Z,94.06
2023-01-07T03:13:31.835Z,94.06
2023-01-07T03:14:31.696Z,94.06
2023-01-07T03:15:31.680Z,94.06
2023-01-07T03:16:31.685Z,94.06
2023-01-07T03:17:31.668Z,94.06
2023-01-07T03:18:31.647Z,94.06
2023-01-07T03:19:31.636Z,94.06
2023-01-07T03:20:31.634Z,94.06
2023-01-07T03:21:31.677Z,94.16
2023-01-07T03:22:31.623Z,94.16
2023-01-07T03:23:31.591Z,94.16
2023-01-07T03:24:31.579Z,94.16
2023-01-07T03:25:31.574Z,94.16
2023-01-07T03:26:31.566Z,94.16
2023-01-07T03:27:31.546Z,94.16
2023-01-07T03:28:31.536Z,94.06
2023-01-07T03:29:31.639Z,94.06
2023-01-07T03:30:31.513Z,94.06
2023-01-07T03:31:31.558Z,94.16
2023-01-07T03:32:31.487Z,94.16
2023-01-07T03:33:31.479Z,94.16
2023-01-07T03:34:31.459Z,94.16
2023-01-07T03:35:31.453Z,94.16
2023-01-07T03:36:31.452Z,94.16
2023-01-07T03:37:31.431Z,94.16
2023-01-07T03:38:31.425Z,94.16
2023-01-07T03:39:31.413Z,94.26
2023-01-07T03:40:31.402Z,94.26
2023-01-07T03:41:31.388Z,94.26
2023-01-07T03:42:31.376Z,94.26
2023-01-07T03:43:31.359Z,94.26
2023-01-07T03:44:31.361Z,94.26
2023-01-07T03:45:31.531Z,94.26
2023-01-07T03:46:31.325Z,94.37
2023-01-07T03:47:31.350Z,94.37
2023-01-07T03:48:31.298Z,94.37
2023-01-07T03:49:33.302Z,94.26
2023-01-07T03:50:31.283Z,94.26
2023-01-07T03:51:31.264Z,94.26
2023-01-07T03:52:31.254Z,94.26
2023-01-07T03:53:31.243Z,94.16
2023-01-07T03:54:31.239Z,94.26
2023-01-07T03:55:31.219Z,94.26
2023-01-07T03:56:31.200Z,94.26
2023-01-07T03:57:31.188Z,94.26
2023-01-07T03:58:31.180Z,94.26
2023-01-07T03:59:31.168Z,94.37
2023-01-07T04:00:31.165Z,94.37
2023-01-07T04:01:31.423Z,94.37
2023-01-07T04:02:31.138Z,94.37
2023-01-07T04:03:31.131Z,94.26
2023-01-07T04:04:31.167Z,94.26
2023-01-07T04:05:31.118Z,94.26
2023-01-07T04:06:31.097Z,94.26
2023-01-07T04:07:31.084Z,94.26
2023-01-07T04:08:31.061Z,94.26
2023-01-07T04:09:31.056Z,94.26
2023-01-07T04:10:31.055Z,94.26
2023-01-07T04:11:31.033Z,94.26
2023-01-07T04:12:31.026Z,94.26
2023-01-07T04:13:31.003Z,94.26
2023-01-07T04:14:30.997Z,94.26
2023-01-07T04:15:30.988Z,94.26
2023-01-07T04:16:31.079Z,94.26
2023-01-07T04:17:31.074Z,94.26
2023-01-07T04:18:30.954Z,94.26
2023-01-07T04:19:30.935Z,94.26
2023-01-07T04:20:30.923Z,94.26
2023-01-07T04:21:30.916Z,94.26
2023-01-07T04:22:30.926Z,94.26
2023-01-07T04:23:30.886Z,94.37
2023-01-07T04:24:30.881Z,94.26
2023-01-07T04:25:30.865Z,94.26
2023-01-07T04:26:30.855Z,94.26
2023-01-07T04:27:30.845Z,94.26
2023-01-07T04:28:30.828Z,94.21
2023-01-07T04:29:30.824Z,94.21
2023-01-07T04:30:30.874Z,94.21
2023-01-07T04:31:30.799Z,94.21
2023-01-07T04:32:30.794Z,94.21
2023-01-07T04:33:30.893Z,94.21
2023-01-07T04:34:30.777Z,94.21
2023-01-07T04:35:30.784Z,94.31
2023-01-07T04:36:30.750Z,94.31
2023-01-07T04:37:30.730Z,94.31
2023-01-07T04:38:30.724Z,94.31
2023-01-07T04:39:30.709Z,94.41
2023-01-07T04:40:30.701Z,94.41
2023-01-07T04:41:30.685Z,94.41
2023-01-07T04:42:30.667Z,94.41
2023-01-07T04:43:30.666Z,94.51
2023-01-07T04:44:30.659Z,94.62
2023-01-07T04:45:30.650Z,94.76
2023-01-07T04:46:30.709Z,94.76
2023-01-07T04:47:30.616Z,94.76
2023-01-07T04:48:30.600Z,94.76
2023-01-07T04:49:30.709Z,94.87
2023-01-07T04:50:30.597Z,94.87
2023-01-07T04:51:30.564Z,94.87
2023-01-07T04:52:30.568Z,94.92
2023-01-07T04:53:30.540Z,94.87
2023-01-07T04:54:30.565Z,94.97
2023-01-07T04:55:30.528Z,94.97
2023-01-07T04:56:30.521Z,94.97
2023-01-07T04:57:30.529Z,94.97
2023-01-07T04:58:30.489Z,94.97
2023-01-07T04:59:30.479Z,95.08
2023-01-07T05:00:30.467Z,95.08
2023-01-07T05:01:30.569Z,95.08
2023-01-07T05:02:30.442Z,95.08
2023-01-07T05:03:30.444Z,95.17
2023-01-07T05:04:30.474Z,95.17
2023-01-07T05:05:30.530Z,95.17
2023-01-07T05:06:30.420Z,95.28
2023-01-07T05:07:30.379Z,95.28
2023-01-07T05:08:30.374Z,95.23
2023-01-07T05:09:30.355Z,95.23
2023-01-07T05:10:30.355Z,95.23
2023-01-07T05:11:30.337Z,95.23
2023-01-07T05:12:30.333Z,95.23
2023-01-07T05:13:30.309Z,95.23
2023-01-07T05:14:30.302Z,95.34
2023-01-07T05:15:30.294Z,95.34
2023-01-07T05:16:30.346Z,95.34
2023-01-07T05:17:30.267Z,95.34
2023-01-07T05:18:30.266Z,95.34
2023-01-07T05:19:30.238Z,95.34
2023-01-07T05:20:30.242Z,95.34
2023-01-07T05:21:30.341Z,95.34
2023-01-07T05:22:30.210Z,95.30
2023-01-07T05:23:30.190Z,95.30
2023-01-07T05:24:30.181Z,95.30
2023-01-07T05:25:30.168Z,95.30
2023-01-07T05:26:30.153Z,95.30
2023-01-07T05:27:30.151Z,95.30
2023-01-07T05:28:30.139Z,95.30
2023-01-07T05:29:30.128Z,95.30
2023-01-07T05:30:30.187Z,95.30
2023-01-07T05:31:30.108Z,95.30
2023-01-07T05:32:30.087Z,95.30
2023-01-07T05:33:30.073Z,95.30
2023-01-07T05:34:30.079Z,95.30
2023-01-07T05:35:30.063Z,95.30
2023-01-07T05:36:30.048Z,95.30
2023-01-07T05:37:30.155Z,95.30
2023-01-07T05:38:30.022Z,95.30
2023-01-07T05:39:30.003Z,95.30
2023-01-07T05:40:30.007Z,95.30
2023-01-07T05:41:29.987Z,95.30
2023-01-07T05:42:30.011Z,95.40
2023-01-07T05:43:29.956Z,95.40
2023-01-07T05:44:29.958Z,95.40
2023-01-07T05:45:29.947Z,95.40
2023-01-07T05:46:29.985Z,95.40
2023-01-07T05:47:29.916Z,95.30
2023-01-07T05:48:29.915Z,95.30
2023-01-07T05:49:29.899Z,95.40
2023-01-07T05:50:29.876Z,95.40
2023-01-07T05:51:29.871Z,95.30
2023-01-07T05:52:29.855Z,95.30
2023-01-07T05:53:29.975Z,95.30
2023-01-07T05:54:29.835Z,95.30
2023-01-07T05:55:29.829Z,95.30
2023-01-07T05:56:29.811Z,95.30
2023-01-07T05:57:29.808Z,95.25
2023-01-07T05:58:29.791Z,95.25
2023-01-07T05:59:29.783Z,95.25
2023-01-07T06:00:29.766Z,95.15
2023-01-07T06:01:29.814Z,95.15
2023-01-07T06:02:29.747Z,95.15
2023-01-07T06:03:29.788Z,95.15
2023-01-07T06:04:29.760Z,95.15
2023-01-07T06:05:29.705Z,95.15
2023-01-07T06:06:29.700Z,95.15
2023-01-07T06:07:29.679Z,95.15
2023-01-07T06:08:29.672Z,95.15
2023-01-07T06:09:29.787Z,95.05
2023-01-07T06:10:29.662Z,95.05
2023-01-07T06:11:29.639Z,95.05
2023-01-07T06:12:29.626Z,95.05
2023-01-07T06:13:29.618Z,94.94
2023-01-07T06:14:29.611Z,94.84
2023-01-07T06:15:29.738Z,94.84
2023-01-07T06:16:29.585Z,94.73
2023-01-07T06:17:29.576Z,94.63
2023-01-07T06:18:29.565Z,94.63
2023-01-07T06:19:29.559Z,94.53
2023-01-07T06:20:29.543Z,94.63
2023-01-07T06:21:29.521Z,94.53
2023-01-07T06:22:29.509Z,94.63
2023-01-07T06:23:29.502Z,94.53
2023-01-07T06:24:29.499Z,94.53
2023-01-07T06:25:29.604Z,94.53
2023-01-07T06:26:29.468Z,94.53
2023-01-07T06:27:29.453Z,94.53
2023-01-07T06:28:29.456Z,94.53
2023-01-07T06:29:29.429Z,94.53
2023-01-07T06:30:29.421Z,94.43
2023-01-07T06:31:29.494Z,94.43
2023-01-07T06:32:29.394Z,94.43
2023-01-07T06:33:29.388Z,94.53
2023-01-07T06:34:29.370Z,94.43
2023-01-07T06:35:29.365Z,94.32
2023-01-07T06:36:29.354Z,94.43
2023-01-07T06:37:29.343Z,94.32
2023-01-07T06:38:29.325Z,94.32
2023-01-07T06:39:29.312Z,94.22
2023-01-07T06:40:29.308Z,94.22
2023-01-07T06:41:29.412Z,94.22
2023-01-07T06:42:29.285Z,94.22
2023-01-07T06:43:29.291Z,94.22
2023-01-07T06:44:29.257Z,94.32
2023-01-07T06:45:29.258Z,94.32
2023-01-07T06:46:29.336Z,94.43
2023-01-07T06:47:29.221Z,94.43
2023-01-07T06:48:29.250Z,94.53
2023-01-07T06:49:29.203Z,94.53
2023-01-07T06:50:31.199Z,94.63
2023-01-07T06:51:29.180Z,94.73
2023-01-07T06:52:29.165Z,94.63
2023-01-07T06:53:29.168Z,94.73
2023-01-07T06:54:29.158Z,94.69
2023-01-07T06:55:29.164Z,94.69
2023-01-07T06:56:29.123Z,94.69
2023-01-07T06:57:29.247Z,94.69
2023-01-07T06:58:29.104Z,94.69
2023-01-07T06:59:29.082Z,94.69
2023-01-07T07:00:29.079Z,94.69
2023-01-07T07:01:29.248Z,94.69
2023-01-07T07:02:29.175Z,94.79
2023-01-07T07:03:29.043Z,94.79
2023-01-07T07:04:29.030Z,94.79
2023-01-07T07:05:29.018Z,94.94
2023-01-07T07:06:29.002Z,95.05
2023-01-07T07:07:28.992Z,95.05
2023-01-07T07:08:28.990Z,95.15
2023-01-07T07:09:30.984Z,95.25
2023-01-07T07:10:30.968Z,95.25
2023-01-07T07:11:28.950Z,95.25
2023-01-07T07:12:28.941Z,95.25
2023-01-07T07:13:31.049Z,95.35
2023-01-07T07:14:28.923Z,95.35
2023-01-07T07:15:30.900Z,95.35
2023-01-07T07:16:31.196Z,95.45
2023-01-07T07:17:28.886Z,95.45
2023-01-07T07:18:28.871Z,95.45
2023-01-07T07:19:28.875Z,95.56
2023-01-07T07:20:28.928Z,95.56
2023-01-07T07:21:28.844Z,95.56
2023-01-07T07:22:28.823Z,95.56
2023-01-07T07:23:28.814Z,95.56
2023-01-07T07:24:28.813Z,95.66
2023-01-07T07:25:28.790Z,95.66
2023-01-07T07:26:28.775Z,95.66
2023-01-07T07:27:28.770Z,95.66
2023-01-07T07:28:28.754Z,95.66
2023-01-07T07:29:28.866Z,95.66
2023-01-07T07:30:46.906Z,95.66
2023-01-07T07:31:28.791Z,95.66
2023-01-07T07:32:28.738Z,95.66
2023-01-07T07:33:30.696Z,95.66
2023-01-07T07:34:28.682Z,95.72
2023-01-07T07:35:28.675Z,95.61
2023-01-07T07:36:28.668Z,95.61
2023-01-07T07:37:28.652Z,95.52
2023-01-07T07:38:28.640Z,95.56
2023-01-07T07:39:28.626Z,95.56
2023-01-07T07:40:28.616Z,95.61
2023-01-07T07:41:28.617Z,95.52
2023-01-07T07:42:28.596Z,95.52
2023-01-07T07:43:28.582Z,95.52
2023-01-07T07:44:28.564Z,95.52
2023-01-07T07:45:28.683Z,95.52
2023-01-07T07:46:28.590Z,95.61
2023-01-07T07:47:28.544Z,95.61
2023-01-07T07:48:28.529Z,95.52
2023-01-07T07:49:28.540Z,95.61
2023-01-07T07:50:28.506Z,95.61
2023-01-07T07:51:28.488Z,95.52
2023-01-07T07:52:28.480Z,95.52
2023-01-07T07:53:28.466Z,95.52
2023-01-07T07:54:28.480Z,95.41
2023-01-07T07:55:28.451Z,95.41
2023-01-07T07:56:28.431Z,95.41
2023-01-07T07:57:28.419Z,95.52
2023-01-07T07:58:28.412Z,95.52
2023-01-07T07:59:28.397Z,95.41
2023-01-07T08:00:28.386Z,95.41
2023-01-07T08:01:28.662Z,95.41
2023-01-07T08:02:28.392Z,95.41
2023-01-07T08:03:28.394Z,95.41
2023-01-07T08:04:28.344Z,95.41
2023-01-07T08:05:28.368Z,95.41
2023-01-07T08:06:28.312Z,95.52
2023-01-07T08:07:33.122Z,95.52
2023-01-07T08:08:28.295Z,95.52
2023-01-07T08:09:28.281Z,95.52
2023-01-07T08:10:28.262Z,95.52
2023-01-07T08:11:28.283Z,95.52
2023-01-07T08:12:28.248Z,95.52
2023-01-07T08:13:28.240Z,95.52
2023-01-07T08:14:28.223Z,95.52
2023-01-07T08:15:28.216Z,95.41
2023-01-07T08:16:28.301Z,95.47
2023-01-07T08:17:28.316Z,95.47
2023-01-07T08:18:28.189Z,95.26
2023-01-07T08:19:28.164Z,95.16
2023-01-07T08:20:28.146Z,95.16
2023-01-07T08:21:28.151Z,95.16
2023-01-07T08:22:28.132Z,95.06
2023-01-07T08:23:28.169Z,95.06
2023-01-07T08:24:28.101Z,94.95
2023-01-07T08:25:28.093Z,94.95
2023-01-07T08:26:28.086Z,94.85
2023-01-07T08:27:28.083Z,94.95
2023-01-07T08:28:28.067Z,94.85
2023-01-07T08:29:28.045Z,94.65
2023-01-07T08:30:28.057Z,94.54
2023-01-07T08:31:28.083Z,94.44
2023-01-07T08:32:28.018Z,94.54
2023-01-07T08:33:28.122Z,94.44
2023-01-07T08:34:27.997Z,94.44
2023-01-07T08:35:27.984Z,94.34
2023-01-07T08:36:27.966Z,94.44
2023-01-07T08:37:27.961Z,94.44
2023-01-07T08:38:27.954Z,94.44
2023-01-07T08:39:27.952Z,94.44
2023-01-07T08:40:27.927Z,94.44
2023-01-07T08:41:27.916Z,94.29
2023-01-07T08:42:27.905Z,94.19
2023-01-07T08:43:27.895Z,94.29
2023-01-07T08:44:27.889Z,94.09
2023-01-07T08:45:27.873Z,94.09
2023-01-07T08:46:27.953Z,93.99
2023-01-07T08:47:27.896Z,93.99
2023-01-07T08:48:27.829Z,93.99
2023-01-07T08:49:27.857Z,93.99
2023-01-07T08:50:27.813Z,93.95
2023-01-07T08:51:27.804Z,93.95
2023-01-07T08:52:27.794Z,93.74
2023-01-07T08:53:27.790Z,93.43
2023-01-07T08:54:27.770Z,93.43
2023-01-07T08:55:27.760Z,93.33
2023-01-07T08:56:27.748Z,93.12
2023-01-07T08:57:27.747Z,93.12
2023-01-07T08:58:27.729Z,93.23
2023-01-07T08:59:27.707Z,93.12
2023-01-07T09:00:27.800Z,93.08
2023-01-07T09:01:27.818Z,92.98
2023-01-07T09:02:27.744Z,92.87
2023-01-07T09:03:27.663Z,92.87
2023-01-07T09:04:27.658Z,92.46
2023-01-07T09:05:27.774Z,92.36
2023-01-07T09:06:27.641Z,92.36
2023-01-07T09:07:27.629Z,92.26
2023-01-07T09:08:27.628Z,92.16
2023-01-07T09:09:27.615Z,92.16
2023-01-07T09:10:27.586Z,92.05
2023-01-07T09:11:27.583Z,91.95
2023-01-07T09:12:27.562Z,91.90
2023-01-07T09:13:27.556Z,91.79
2023-01-07T09:14:27.539Z,91.90
2023-01-07T09:15:27.534Z,91.75
2023-01-07T09:16:27.597Z,91.75
2023-01-07T09:17:27.512Z,91.65
2023-01-07T09:18:27.508Z,91.65
2023-01-07T09:19:27.491Z,91.54
2023-01-07T09:20:27.492Z,91.58
2023-01-07T09:21:27.589Z,91.58
2023-01-07T09:22:27.456Z,91.58
2023-01-07T09:23:27.445Z,91.65
2023-01-07T09:24:27.427Z,91.48
2023-01-07T09:25:27.423Z,91.48
2023-01-07T09:26:27.427Z,91.48
2023-01-07T09:27:27.398Z,91.48
2023-01-07T09:28:27.390Z,91.58
2023-01-07T09:29:27.390Z,91.69
2023-01-07T09:30:27.360Z,91.65
2023-01-07T09:31:27.399Z,91.54
2023-01-07T09:32:27.340Z,91.54
2023-01-07T09:33:27.337Z,91.34
2023-01-07T09:34:27.321Z,91.34
2023-01-07T09:35:27.309Z,91.34
2023-01-07T09:36:27.300Z,91.34
2023-01-07T09:37:27.430Z,91.19
2023-01-07T09:38:27.284Z,91.30
2023-01-07T09:39:27.268Z,91.19
2023-01-07T09:40:27.283Z,91.09
2023-01-07T09:41:27.240Z,91.09
2023-01-07T09:42:27.231Z,90.99
2023-01-07T09:43:27.245Z,90.78
2023-01-07T09:44:27.204Z,90.68
2023-01-07T09:45:27.304Z,90.47
2023-01-07T09:46:27.199Z,90.47
2023-01-07T09:47:27.170Z,90.47
2023-01-07T09:48:27.165Z,90.47
2023-01-07T09:49:27.160Z,90.43
2023-01-07T09:50:27.150Z,90.23
2023-01-07T09:51:27.128Z,90.27
2023-01-07T09:52:27.126Z,90.23
2023-01-07T09:53:27.225Z,90.33
2023-01-07T09:54:27.094Z,90.23
2023-01-07T09:55:27.102Z,89.92
2023-01-07T09:56:27.072Z,89.92
2023-01-07T09:57:27.057Z,90.02
2023-01-07T09:58:27.049Z,90.13
2023-01-07T09:59:27.041Z,89.92
2023-01-07T10:00:27.023Z,89.92
2023-01-07T10:01:27.111Z,89.72
2023-01-07T10:02:27.083Z,89.82
2023-01-07T10:03:26.996Z,89.82
2023-01-07T10:04:26.998Z,89.82
2023-01-07T10:05:26.967Z,89.67
2023-01-07T10:06:42.314Z,89.57
2023-01-07T10:07:26.953Z,89.47
2023-01-07T10:08:31.145Z,89.37
2023-01-07T10:09:27.064Z,89.06
2023-01-07T10:10:26.919Z,88.90
2023-01-07T10:11:26.949Z,89.10
2023-01-07T10:12:26.920Z,89.20
2023-01-07T10:13:26.891Z,89.41
2023-01-07T10:14:26.880Z,89.31
2023-01-07T10:15:26.861Z,89.41
2023-01-07T10:16:26.959Z,89.51
2023-01-07T10:17:26.832Z,89.51
2023-01-07T10:18:26.831Z,89.51
2023-01-07T10:19:26.811Z,89.41
2023-01-07T10:20:26.816Z,89.31
2023-01-07T10:21:26.797Z,89.20
2023-01-07T10:22:26.788Z,89.20
2023-01-07T10:23:26.765Z,89.16
2023-01-07T10:24:26.757Z,89.16
2023-01-07T10:25:26.877Z,88.96
2023-01-07T10:26:26.739Z,88.71
2023-01-07T10:27:26.729Z,88.51
2023-01-07T10:28:26.716Z,88.40
2023-01-07T10:29:26.706Z,88.16
2023-01-07T10:30:26.747Z,87.95
2023-01-07T10:31:26.740Z,87.92
2023-01-07T10:32:26.668Z,87.10
2023-01-07T10:33:26.681Z,86.73
2023-01-07T10:34:26.647Z,86.97
2023-01-07T10:35:26.667Z,87.18
2023-01-07T10:36:26.641Z,87.48
2023-01-07T10:37:26.607Z,87.65
2023-01-07T10:38:26.603Z,87.54
2023-01-07T10:39:26.583Z,87.03
2023-01-07T10:40:26.584Z,87.03
2023-01-07T10:41:26.696Z,86.93
2023-01-07T10:42:26.549Z,87.03
2023-01-07T10:43:26.541Z,86.99
2023-01-07T10:44:26.551Z,86.99
2023-01-07T10:45:26.548Z,86.89
2023-01-07T10:46:26.508Z,86.79
2023-01-07T10:47:26.506Z,86.07
2023-01-07T10:48:26.491Z,86.18
2023-01-07T10:49:26.477Z,86.42
2023-01-07T10:50:26.466Z,86.59
2023-01-07T10:51:26.461Z,86.48
2023-01-07T10:52:26.455Z,86.07
2023-01-07T10:53:26.426Z,86.18
2023-01-07T10:54:26.414Z,86.18
2023-01-07T10:55:26.414Z,85.97
2023-01-07T10:56:26.400Z,86.18
2023-01-07T10:57:26.515Z,86.03
2023-01-07T10:58:26.368Z,85.77
2023-01-07T10:59:26.364Z,85.87
2023-01-07T11:00:26.353Z,85.87
2023-01-07T11:01:26.507Z,85.62
2023-01-07T11:02:26.526Z,85.56
2023-01-07T11:03:26.316Z,85.36
2023-01-07T11:04:26.306Z,85.46
2023-01-07T11:05:26.293Z,85.80
2023-01-07T11:06:26.289Z,85.71
2023-01-07T11:07:26.273Z,86.01
2023-01-07T11:08:26.262Z,85.77
2023-01-07T11:09:26.248Z,85.15
2023-01-07T11:10:26.245Z,85.15
2023-01-07T11:11:26.218Z,85.26
2023-01-07T11:12:26.215Z,85.36
2023-01-07T11:13:26.326Z,85.15
2023-01-07T11:14:26.191Z,85.26
2023-01-07T11:15:26.175Z,85.46
2023-01-07T11:16:26.198Z,85.56
2023-01-07T11:17:26.164Z,85.36
2023-01-07T11:18:26.138Z,85.32
2023-01-07T11:19:26.133Z,85.01
2023-01-07T11:20:26.119Z,84.81
2023-01-07T11:21:42.921Z,84.71
2023-01-07T11:22:26.129Z,84.71
2023-01-07T11:23:26.085Z,84.66
2023-01-07T11:24:26.109Z,84.36
2023-01-07T11:25:26.060Z,83.75
2023-01-07T11:26:26.062Z,83.64
2023-01-07T11:27:26.041Z,83.75
2023-01-07T11:28:26.035Z,83.91
2023-01-07T11:29:26.137Z,83.54
2023-01-07T11:30:26.008Z,83.34
2023-01-07T11:31:26.023Z,83.54
2023-01-07T11:32:25.988Z,83.64
2023-01-07T11:34:02.651Z,83.64
2023-01-07T11:34:25.961Z,83.75
2023-01-07T11:35:25.949Z,84.09
2023-01-07T11:36:25.935Z,84.16
2023-01-07T11:37:25.935Z,84.11
2023-01-07T11:38:25.909Z,84.01
2023-01-07T11:39:25.920Z,83.36
2023-01-07T11:40:25.898Z,82.75
2023-01-07T11:41:25.881Z,82.24
2023-01-07T11:42:25.902Z,82.44
2023-01-07T11:43:25.861Z,82.14
2023-01-07T11:44:25.872Z,82.00
2023-01-07T11:45:25.968Z,81.93
2023-01-07T11:46:27.032Z,82.03
2023-01-07T11:47:25.814Z,82.00
2023-01-07T11:48:25.798Z,82.10
2023-01-07T11:49:25.807Z,81.86
2023-01-07T11:50:25.783Z,81.25
2023-01-07T11:51:25.794Z,80.63
2023-01-07T11:52:25.748Z,80.53
2023-01-07T11:53:25.737Z,80.63
2023-01-07T11:54:25.759Z,80.63
2023-01-07T11:55:25.713Z,80.73
2023-01-07T11:56:25.721Z,80.63
2023-01-07T11:57:25.704Z,80.73
2023-01-07T11:58:30.056Z,80.53
2023-01-07T11:59:25.687Z,80.43
2023-01-07T12:00:25.659Z,80.29
2023-01-07T12:01:31.867Z,80.23
2023-01-07T12:02:25.838Z,80.23
2023-01-07T12:03:25.682Z,80.29
2023-01-07T12:04:25.632Z,80.19
2023-01-07T12:05:25.616Z,80.09
2023-01-07T12:06:25.604Z,80.39
2023-01-07T12:07:25.594Z,80.49
2023-01-07T12:08:25.572Z,80.15
2023-01-07T12:09:25.558Z,79.23
2023-01-07T12:10:25.562Z,79.58
2023-01-07T12:11:25.537Z,79.82
2023-01-07T12:12:25.528Z,79.92
2023-01-07T12:13:25.513Z,80.02
2023-01-07T12:14:25.513Z,80.02
2023-01-07T12:15:25.504Z,80.02
2023-01-07T12:16:25.590Z,80.29
2023-01-07T12:17:25.596Z,80.29
2023-01-07T12:18:25.458Z,79.88
2023-01-07T12:19:25.447Z,79.92
2023-01-07T12:20:25.435Z,80.02
2023-01-07T12:21:25.433Z,80.23
2023-01-07T12:22:25.406Z,80.46
2023-01-07T12:23:25.426Z,80.57
2023-01-07T12:24:25.388Z,80.78
2023-01-07T12:25:25.377Z,80.87
2023-01-07T12:26:25.380Z,81.39
2023-01-07T12:27:25.358Z,81.55
2023-01-07T12:28:25.355Z,81.55
2023-01-07T12:29:25.343Z,81.55
2023-01-07T12:30:25.317Z,81.14
2023-01-07T12:31:25.382Z,80.53
2023-01-07T12:32:25.309Z,80.53
2023-01-07T12:33:25.419Z,80.33
2023-01-07T12:34:25.273Z,80.12
2023-01-07T12:35:25.275Z,80.43
2023-01-07T12:36:25.256Z,80.63
2023-01-07T12:37:25.237Z,80.29
2023-01-07T12:38:25.228Z,80.09
2023-01-07T12:39:25.214Z,79.82
2023-01-07T12:40:25.207Z,79.92
2023-01-07T12:41:25.201Z,80.23
2023-01-07T12:42:25.192Z,80.33
2023-01-07T12:43:25.183Z,80.37
2023-01-07T12:44:25.168Z,80.67
2023-01-07T12:45:25.160Z,81.22
2023-01-07T12:46:25.218Z,81.42
2023-01-07T12:47:31.481Z,81.22
2023-01-07T12:48:25.118Z,80.91
2023-01-07T12:49:25.245Z,81.01
2023-01-07T12:50:25.099Z,80.91
2023-01-07T12:51:25.092Z,81.01
2023-01-07T12:52:25.081Z,81.12